createdAt,value
2023-04-28T00:04:29.290Z,0.20
2023-04-28T00:09:31.214Z,0.22
2023-04-28T00:14:32.700Z,0.17
2023-04-28T00:19:34.660Z,0.22
2023-04-28T00:24:36.559Z,0.28
2023-04-28T00:29:38.030Z,0.10
2023-04-28T00:34:39.569Z,0.20
2023-04-28T00:39:41.775Z,0.50
2023-04-28T00:44:43.265Z,0.40
2023-04-28T00:49:45.530Z,0.35
2023-04-28T00:54:47.753Z,0.00
2023-04-28T00:59:49.685Z,1.25
2023-04-28T01:04:52.591Z,0.10
2023-04-28T01:09:57.181Z,0.52
2023-04-28T01:15:05.018Z,0.03
2023-04-28T01:20:07.469Z,0.00
2023-04-28T01:25:09.098Z,0.10
2023-04-28T01:30:10.952Z,0.10
2023-04-28T01:35:12.455Z,0.22
2023-04-28T01:40:13.984Z,0.35
2023-04-28T01:45:15.802Z,0.08
2023-04-28T01:50:17.720Z,1.23
2023-04-28T01:55:19.220Z,0.98
2023-04-28T02:00:21.617Z,0.08
2023-04-28T02:05:23.048Z,0.08
2023-04-28T02:10:26.324Z,0.68
2023-04-28T02:15:27.944Z,0.22
2023-04-28T02:20:30.779Z,0.45
2023-04-28T02:25:34.095Z,0.10
2023-04-28T02:30:35.683Z,0.28
2023-04-28T02:35:37.190Z,0.00
2023-04-28T02:40:38.708Z,0.15
2023-04-28T02:45:40.444Z,0.20
2023-04-28T02:50:42.297Z,0.00
2023-04-28T02:55:43.884Z,0.10
2023-04-28T03:00:46.259Z,0.05
2023-04-28T03:05:48.023Z,0.57
2023-04-28T03:10:51.023Z,0.20
2023-04-28T03:15:52.761Z,0.10
2023-04-28T03:20:54.267Z,0.70
2023-04-28T03:25:55.812Z,0.40
2023-04-28T03:30:59.072Z,0.43
2023-04-28T03:36:00.732Z,0.30
2023-04-28T03:41:02.224Z,0.43
2023-04-28T03:46:22.266Z,0.17
2023-04-28T03:51:24.366Z,0.32
2023-04-28T03:56:26.035Z,0.25
2023-04-28T04:01:28.739Z,0.22
2023-04-28T04:06:30.832Z,0.20
2023-04-28T04:11:32.519Z,0.10
2023-04-28T04:16:36.009Z,0.63
2023-04-28T04:21:38.348Z,0.28
2023-04-28T04:26:39.853Z,0.70
2023-04-28T04:31:57.756Z,0.22
2023-04-28T04:36:59.542Z,0.10
2023-04-28T04:42:13.280Z,0.00
2023-04-28T04:47:33.942Z,0.20
2023-04-28T04:52:35.795Z,0.30
2023-04-28T04:57:37.614Z,0.10
2023-04-28T05:02:48.655Z,0.22
2023-04-28T05:07:52.495Z,0.47
2023-04-28T05:12:56.274Z,0.30
2023-04-28T05:17:58.248Z,0.10
2023-04-28T05:22:59.744Z,0.68
2023-04-28T05:28:07.247Z,0.28
2023-04-28T05:33:08.979Z,0.32
2023-04-28T05:38:10.816Z,0.68
2023-04-28T05:43:12.626Z,0.63
2023-04-28T05:48:14.348Z,0.40
2023-04-28T05:53:16.232Z,0.73
2023-04-28T05:58:17.845Z,0.40
2023-04-28T06:03:20.048Z,0.10
2023-04-28T06:08:22.431Z,0.75
2023-04-28T06:13:23.924Z,0.50
2023-04-28T06:18:25.771Z,0.43
2023-04-28T06:23:27.509Z,0.93
2023-04-28T06:28:29.346Z,0.63
2023-04-28T06:33:30.794Z,0.63
2023-04-28T06:38:32.464Z,0.63
2023-04-28T06:43:34.746Z,0.30
2023-04-28T06:48:43.841Z,0.43
2023-04-28T06:53:45.409Z,0.70
2023-04-28T06:58:47.292Z,0.77
2023-04-28T07:03:49.440Z,0.50
2023-04-28T07:08:51.787Z,0.30
2023-04-28T07:13:53.276Z,0.73
2023-04-28T07:18:54.926Z,0.32
2023-04-28T07:23:57.005Z,0.63
2023-04-28T07:28:58.528Z,0.70
2023-04-28T07:33:59.996Z,0.22
2023-04-28T07:39:02.139Z,1.00
2023-04-28T07:44:08.294Z,0.68
2023-04-28T07:49:09.812Z,0.20
2023-04-28T07:54:11.356Z,0.60
2023-04-28T07:59:13.046Z,0.70
2023-04-28T08:04:15.157Z,0.17
2023-04-28T08:09:17.088Z,0.10
2023-04-28T08:14:20.144Z,0.65
2023-04-28T08:19:21.692Z,0.30
2023-04-28T08:24:23.189Z,0.47
2023-04-28T08:29:25.994Z,0.70
2023-04-28T08:34:27.469Z,1.02
2023-04-28T08:39:29.190Z,0.40
2023-04-28T08:44:39.898Z,0.68
2023-04-28T08:49:42.017Z,1.02
2023-04-28T08:54:44.436Z,0.95
2023-04-28T08:59:46.302Z,0.63
2023-04-28T09:04:48.127Z,0.80
2023-04-28T09:09:49.808Z,0.60
2023-04-28T09:14:58.159Z,0.90
2023-04-28T09:19:59.859Z,2.22
2023-04-28T09:25:11.461Z,1.02
2023-04-28T09:30:13.302Z,0.75
2023-04-28T09:35:14.790Z,1.27
2023-04-28T09:40:16.752Z,1.45
2023-04-28T09:45:18.495Z,0.63
2023-04-28T09:50:20.269Z,0.75
2023-04-28T09:55:21.740Z,0.85
2023-04-28T10:00:24.106Z,1.17
2023-04-28T10:05:26.073Z,0.80
2023-04-28T10:10:29.097Z,1.15
2023-04-28T10:15:32.322Z,0.98
2023-04-28T10:20:34.723Z,1.80
2023-04-28T10:25:37.192Z,0.85
2023-04-28T10:30:38.681Z,0.57
2023-04-28T10:35:42.960Z,0.93
2023-04-28T10:40:46.579Z,1.08
2023-04-28T10:45:56.641Z,0.65
2023-04-28T10:50:58.452Z,1.20
2023-04-28T10:56:06.672Z,1.10
2023-04-28T11:01:20.183Z,0.93
2023-04-28T11:06:36.181Z,1.20
2023-04-28T11:11:39.505Z,1.75
2023-04-28T11:17:02.800Z,1.23
2023-04-28T11:22:15.188Z,1.27
2023-04-28T11:27:27.735Z,1.63
2023-04-28T11:32:31.406Z,1.10
2023-04-28T11:37:32.969Z,1.00
2023-04-28T11:42:34.498Z,0.93
2023-04-28T11:47:36.798Z,1.15
2023-04-28T11:52:50.284Z,0.85
2023-04-28T11:58:23.583Z,0.68
2023-04-28T12:03:25.134Z,0.93
2023-04-28T12:08:29.901Z,1.60
2023-04-28T12:13:31.762Z,0.95
2023-04-28T12:18:34.043Z,1.00
2023-04-28T12:23:36.311Z,1.10
2023-04-28T12:28:39.662Z,0.95
2023-04-28T12:33:41.221Z,1.33
2023-04-28T12:38:48.863Z,1.35
2023-04-28T12:43:50.310Z,1.25
2023-04-28T12:48:51.879Z,0.45
2023-04-28T12:53:53.330Z,0.82
2023-04-28T12:58:54.882Z,0.75
2023-04-28T13:03:56.597Z,0.40
2023-04-28T13:08:58.526Z,0.63
2023-04-28T13:13:59.975Z,0.40
2023-04-28T13:19:03.523Z,0.98
2023-04-28T13:24:05.489Z,0.25
2023-04-28T13:29:08.506Z,0.68
2023-04-28T13:34:15.789Z,0.85
2023-04-28T13:39:20.110Z,0.50
2023-04-28T13:44:21.771Z,0.32
2023-04-28T13:49:24.220Z,0.43
2023-04-28T13:54:25.658Z,0.30
2023-04-28T13:59:27.258Z,0.43
2023-04-28T14:04:28.833Z,0.40
2023-04-28T14:09:30.829Z,0.32
2023-04-28T14:14:32.369Z,0.25
2023-04-28T14:19:33.920Z,0.20
2023-04-28T14:24:35.507Z,0.43
2023-04-28T14:29:36.992Z,0.30
2023-04-28T14:34:38.463Z,0.30
2023-04-28T14:39:39.992Z,0.65
2023-04-28T14:44:41.453Z,0.25
2023-04-28T14:49:42.901Z,0.52
2023-04-28T14:54:44.860Z,0.47
2023-04-28T14:59:46.777Z,0.43
2023-04-28T15:04:48.945Z,0.30
2023-04-28T15:09:51.243Z,0.38
2023-04-28T15:14:53.927Z,0.40
2023-04-28T15:19:55.739Z,0.22
2023-04-28T15:24:57.216Z,0.20
2023-04-28T15:29:58.708Z,0.28
2023-04-28T15:35:00.392Z,0.30
2023-04-28T15:40:02.129Z,0.75
2023-04-28T15:45:03.916Z,0.20
2023-04-28T15:50:06.376Z,0.10
2023-04-28T15:55:08.486Z,0.05
2023-04-28T16:00:11.274Z,0.30
2023-04-28T16:05:13.075Z,0.22
2023-04-28T16:10:16.476Z,0.10
2023-04-28T16:15:19.287Z,0.13
2023-04-28T16:20:20.931Z,0.35
2023-04-28T16:25:22.709Z,0.08
2023-04-28T16:30:24.801Z,0.32
2023-04-28T16:35:26.272Z,0.13
2023-04-28T16:40:28.883Z,0.10
2023-04-28T16:45:30.354Z,0.10
2023-04-28T16:50:32.917Z,0.32
2023-04-28T16:55:37.906Z,0.40
2023-04-28T17:00:39.360Z,0.20
2023-04-28T17:05:40.879Z,0.47
2023-04-28T17:10:42.369Z,0.52
2023-04-28T17:15:43.858Z,0.50
2023-04-28T17:20:45.421Z,0.47
2023-04-28T17:25:46.866Z,0.50
2023-04-28T17:30:48.389Z,0.13
2023-04-28T17:35:50.102Z,1.05
2023-04-28T17:40:51.618Z,0.35
2023-04-28T17:45:54.227Z,0.50
2023-04-28T17:50:55.851Z,0.55
2023-04-28T17:55:57.440Z,0.68
2023-04-28T18:01:03.143Z,0.30
2023-04-28T18:06:06.089Z,0.70
2023-04-28T18:11:10.036Z,0.85
2023-04-28T18:16:14.806Z,0.60
2023-04-28T18:21:16.679Z,0.77
2023-04-28T18:26:18.153Z,1.30
2023-04-28T18:31:19.664Z,0.77
2023-04-28T18:36:21.189Z,0.95
2023-04-28T18:41:22.739Z,1.10
2023-04-28T18:46:25.620Z,0.85
2023-04-28T18:51:27.347Z,0.82
2023-04-28T18:56:29.154Z,0.40
2023-04-28T19:01:30.852Z,0.63
2023-04-28T19:06:32.414Z,0.32
2023-04-28T19:11:33.891Z,0.35
2023-04-28T19:16:35.406Z,0.10
2023-04-28T19:21:41.417Z,0.73
2023-04-28T19:26:42.960Z,0.20
2023-04-28T19:31:44.661Z,0.47
2023-04-28T19:36:46.235Z,0.10
2023-04-28T19:41:48.069Z,0.38
2023-04-28T19:46:50.386Z,0.08
2023-04-28T19:51:51.980Z,0.40
2023-04-28T19:56:53.788Z,0.38
2023-04-28T20:01:55.354Z,0.85
2023-04-28T20:06:56.872Z,0.75
2023-04-28T20:11:58.420Z,0.45
2023-04-28T20:17:02.036Z,0.00
2023-04-28T20:22:07.494Z,0.47
2023-04-28T20:27:11.255Z,0.90
2023-04-28T20:32:13.714Z,0.30
2023-04-28T20:37:15.221Z,0.30
2023-04-28T20:42:17.575Z,0.85
2023-04-28T20:47:19.213Z,0.40
2023-04-28T20:52:20.688Z,0.77
2023-04-28T20:57:22.225Z,0.75
2023-04-28T21:02:23.812Z,0.80
2023-04-28T21:07:25.445Z,0.73
2023-04-28T21:12:26.952Z,1.20
2023-04-28T21:17:28.455Z,1.50
2023-04-28T21:22:30.008Z,1.05
2023-04-28T21:27:31.526Z,0.75
2023-04-28T21:32:33.829Z,1.15
2023-04-28T21:37:35.745Z,0.90
2023-04-28T21:42:37.320Z,0.77
2023-04-28T21:47:40.822Z,1.20
2023-04-28T21:52:44.576Z,1.58
2023-04-28T21:57:46.062Z,1.55
2023-04-28T22:02:48.072Z,1.65
2023-04-28T22:07:49.882Z,1.50
2023-04-28T22:12:51.382Z,0.95
2023-04-28T22:17:52.915Z,2.25
2023-04-28T22:22:54.690Z,2.80
2023-04-28T22:27:56.188Z,2.35
2023-04-28T22:32:57.689Z,2.58
2023-04-28T22:37:59.341Z,1.05
2023-04-28T22:43:00.866Z,2.33
2023-04-28T22:48:02.463Z,2.20
2023-04-28T22:53:04.659Z,1.92
2023-04-28T22:58:06.737Z,2.13
2023-04-28T23:03:08.296Z,1.83
2023-04-28T23:08:09.911Z,1.17
2023-04-28T23:13:11.369Z,2.15
2023-04-28T23:18:12.837Z,0.75
2023-04-28T23:23:14.330Z,1.85
2023-04-28T23:28:15.968Z,1.15
2023-04-28T23:33:17.574Z,1.50
2023-04-28T23:38:19.053Z,2.03
2023-04-28T23:43:20.722Z,2.90
2023-04-28T23:48:22.471Z,1.33
2023-04-28T23:53:24.288Z,0.98
2023-04-28T23:58:26.359Z,1.48
